createdAt,value
2024-02-19T00:01:16.599Z,0.40
2024-02-19T00:03:44.003Z,1.85
2024-02-19T00:06:11.320Z,0.40
2024-02-19T00:08:38.636Z,1.83
2024-02-19T00:11:05.953Z,0.30
2024-02-19T00:13:33.215Z,0.40
2024-02-19T00:16:00.549Z,0.47
2024-02-19T00:18:27.969Z,0.40
2024-02-19T00:20:55.397Z,0.47
2024-02-19T00:23:22.522Z,0.95
2024-02-19T00:25:49.703Z,0.50
2024-02-19T00:28:16.863Z,0.47
2024-02-19T00:30:44.372Z,0.40
2024-02-19T00:33:11.769Z,0.43
2024-02-19T00:35:38.977Z,0.43
2024-02-19T00:38:06.261Z,0.50
2024-02-19T00:40:34.334Z,0.32
2024-02-19T00:43:01.512Z,0.75
2024-02-19T00:45:28.742Z,0.38
2024-02-19T00:47:55.859Z,0.95
2024-02-19T00:50:22.986Z,2.78
2024-02-19T00:52:50.209Z,0.70
2024-02-19T00:55:22.470Z,0.43
2024-02-19T00:57:49.728Z,1.02
2024-02-19T01:00:17.702Z,1.08
2024-02-19T01:02:44.892Z,0.85
2024-02-19T01:05:12.076Z,1.75
2024-02-19T01:07:39.220Z,0.40
2024-02-19T01:10:07.180Z,0.40
2024-02-19T01:12:34.658Z,0.70
2024-02-19T01:15:02.192Z,1.10
2024-02-19T01:17:30.463Z,0.77
2024-02-19T01:19:58.684Z,0.63
2024-02-19T01:22:26.108Z,0.90
2024-02-19T01:24:53.313Z,0.40
2024-02-19T01:27:20.514Z,0.38
2024-02-19T01:29:47.868Z,0.70
2024-02-19T01:32:15.338Z,2.47
2024-02-19T01:34:42.688Z,1.00
2024-02-19T01:37:10.653Z,0.50
2024-02-19T01:39:38.003Z,0.50
2024-02-19T01:42:06.368Z,2.00
2024-02-19T01:44:33.659Z,1.13
2024-02-19T01:47:01.209Z,0.50
2024-02-19T01:49:28.689Z,0.45
2024-02-19T01:51:57.488Z,0.50
2024-02-19T01:54:25.477Z,0.50
2024-02-19T01:56:54.424Z,0.50
2024-02-19T01:59:23.931Z,2.28
2024-02-19T02:01:51.944Z,0.70
2024-02-19T02:04:20.287Z,0.63
2024-02-19T02:06:48.301Z,0.55
2024-02-19T02:09:15.985Z,0.77
2024-02-19T02:11:43.194Z,0.70
2024-02-19T02:14:10.533Z,1.45
2024-02-19T02:16:37.715Z,0.68
2024-02-19T02:19:05.171Z,1.15
2024-02-19T02:21:32.509Z,0.65
2024-02-19T02:23:59.664Z,0.40
2024-02-19T02:26:27.600Z,0.50
2024-02-19T02:28:54.908Z,0.60
2024-02-19T02:31:22.139Z,1.77
2024-02-19T02:33:49.681Z,0.60
2024-02-19T02:36:17.097Z,0.50
2024-02-19T02:38:44.328Z,4.18
2024-02-19T02:41:11.546Z,1.27
2024-02-19T02:43:38.932Z,1.02
2024-02-19T02:46:06.277Z,2.63
2024-02-19T02:48:33.604Z,1.83
2024-02-19T02:51:01.597Z,1.23
2024-02-19T02:53:29.153Z,1.00
2024-02-19T02:55:56.406Z,0.73
2024-02-19T02:58:23.711Z,5.03
2024-02-19T03:00:50.914Z,0.77
2024-02-19T03:03:18.153Z,1.10
2024-02-19T03:05:45.400Z,0.73
2024-02-19T03:08:12.932Z,2.45
2024-02-19T03:10:40.398Z,1.70
2024-02-19T03:13:08.086Z,0.80
2024-02-19T03:15:35.371Z,1.00
2024-02-19T03:18:03.321Z,3.03
2024-02-19T03:20:31.687Z,0.98
2024-02-19T03:22:59.296Z,0.82
2024-02-19T03:25:26.634Z,1.77
2024-02-19T03:27:54.291Z,0.90
2024-02-19T03:30:21.724Z,1.25
2024-02-19T03:32:50.191Z,0.70
2024-02-19T03:35:17.564Z,0.55
2024-02-19T03:37:46.141Z,1.08
2024-02-19T03:40:13.693Z,1.42
2024-02-19T03:42:41.158Z,0.50
2024-02-19T03:45:09.258Z,1.10
2024-02-19T03:47:36.907Z,1.75
2024-02-19T03:50:05.358Z,0.70
2024-02-19T03:52:32.706Z,0.93
2024-02-19T03:54:59.936Z,4.20
2024-02-19T03:57:28.998Z,0.98
2024-02-19T03:59:56.225Z,1.02
2024-02-19T04:02:24.307Z,1.80
2024-02-19T04:04:51.706Z,0.90
2024-02-19T04:07:19.034Z,1.05
2024-02-19T04:09:46.342Z,1.15
2024-02-19T04:12:13.800Z,1.02
2024-02-19T04:14:42.423Z,1.35
2024-02-19T04:17:09.965Z,0.88
2024-02-19T04:19:37.477Z,0.93
2024-02-19T04:22:05.002Z,1.13
2024-02-19T04:24:32.293Z,0.95
2024-02-19T04:26:59.562Z,0.63
2024-02-19T04:29:26.706Z,0.50
2024-02-19T04:31:53.854Z,0.80
2024-02-19T04:34:21.162Z,2.85
2024-02-19T04:36:48.663Z,0.88
2024-02-19T04:39:15.885Z,1.15
2024-02-19T04:41:43.284Z,0.80
2024-02-19T04:44:10.579Z,1.40
2024-02-19T04:46:38.364Z,1.55
2024-02-19T04:49:05.742Z,2.40
2024-02-19T04:51:32.952Z,1.00
2024-02-19T04:54:00.223Z,1.05
2024-02-19T04:56:27.534Z,1.20
2024-02-19T04:58:56.443Z,1.60
2024-02-19T05:01:24.145Z,4.03
2024-02-19T05:03:51.912Z,1.23
2024-02-19T05:06:19.158Z,0.93
2024-02-19T05:08:46.937Z,5.22
2024-02-19T05:11:15.910Z,0.80
2024-02-19T05:13:44.257Z,1.00
2024-02-19T05:16:11.817Z,1.75
2024-02-19T05:18:39.304Z,1.55
2024-02-19T05:21:07.626Z,2.53
2024-02-19T05:23:34.986Z,0.90
2024-02-19T05:26:04.137Z,1.80
2024-02-19T05:28:34.009Z,1.30
2024-02-19T05:31:03.499Z,1.85
2024-02-19T05:33:31.548Z,0.90
2024-02-19T05:35:59.407Z,1.08
2024-02-19T05:38:27.184Z,1.48
2024-02-19T05:40:54.973Z,1.58
2024-02-19T05:43:22.568Z,2.78
2024-02-19T05:45:49.840Z,0.82
2024-02-19T05:48:17.216Z,1.00
2024-02-19T05:50:44.612Z,1.67
2024-02-19T05:53:11.958Z,1.08
2024-02-19T05:55:40.036Z,2.45
2024-02-19T05:58:07.512Z,1.23
2024-02-19T06:00:35.056Z,1.27
2024-02-19T06:03:06.129Z,1.77
2024-02-19T06:05:33.539Z,2.33
2024-02-19T06:08:00.933Z,2.05
2024-02-19T06:10:28.407Z,1.42
2024-02-19T06:12:55.697Z,2.47
2024-02-19T06:15:25.628Z,2.60
2024-02-19T06:17:53.213Z,5.97
2024-02-19T06:20:20.716Z,4.50
2024-02-19T06:22:48.176Z,7.65
2024-02-19T06:25:18.952Z,4.57
2024-02-19T06:27:46.436Z,3.10
2024-02-19T06:30:14.227Z,1.85
2024-02-19T06:32:41.557Z,5.85
2024-02-19T06:35:09.446Z,7.00
2024-02-19T06:37:37.112Z,5.00
2024-02-19T06:40:05.014Z,10.52
2024-02-19T06:42:32.279Z,10.55
2024-02-19T06:44:59.439Z,11.23
2024-02-19T06:47:26.981Z,9.18
2024-02-19T06:49:54.278Z,7.90
2024-02-19T06:52:24.425Z,7.22
2024-02-19T06:54:53.077Z,9.18
2024-02-19T06:57:20.498Z,12.13
2024-02-19T06:59:49.805Z,9.32
2024-02-19T07:02:18.213Z,10.80
2024-02-19T07:04:46.952Z,8.73
2024-02-19T07:07:15.334Z,9.27
2024-02-19T07:09:42.969Z,9.57
2024-02-19T07:12:11.047Z,10.82
2024-02-19T07:14:38.436Z,6.43
2024-02-19T07:17:05.728Z,13.20
2024-02-19T07:19:33.067Z,6.22
2024-02-19T07:22:00.578Z,6.43
2024-02-19T07:24:29.773Z,5.03
2024-02-19T07:26:58.830Z,11.38
2024-02-19T07:29:26.237Z,8.30
2024-02-19T07:31:53.488Z,9.40
2024-02-19T07:34:20.974Z,9.25
2024-02-19T07:36:50.375Z,4.45
2024-02-19T07:39:19.205Z,4.15
2024-02-19T07:41:46.841Z,3.65
2024-02-19T07:44:14.348Z,7.88
2024-02-19T07:46:41.488Z,3.92
2024-02-19T07:49:09.237Z,5.55
2024-02-19T07:51:36.645Z,7.43
2024-02-19T07:54:04.148Z,2.67
2024-02-19T07:56:31.537Z,4.20
2024-02-19T07:58:59.034Z,3.50
2024-02-19T08:01:26.324Z,3.15
2024-02-19T08:03:53.934Z,5.72
2024-02-19T08:06:21.240Z,7.72
2024-02-19T08:08:48.605Z,2.53
2024-02-19T08:11:15.880Z,3.63
2024-02-19T08:13:43.627Z,1.83
2024-02-19T08:16:12.147Z,4.55
2024-02-19T08:18:39.496Z,1.98
2024-02-19T08:21:07.004Z,2.97
2024-02-19T08:23:35.406Z,4.05
2024-02-19T08:26:02.702Z,2.05
2024-02-19T08:28:30.635Z,3.63
2024-02-19T08:30:58.689Z,2.03
2024-02-19T08:33:26.521Z,1.77
2024-02-19T08:35:54.053Z,1.77
2024-02-19T08:38:21.423Z,2.58
2024-02-19T08:40:49.148Z,3.95
2024-02-19T08:43:16.515Z,3.45
2024-02-19T08:45:44.123Z,2.17
2024-02-19T08:48:11.757Z,2.00
2024-02-19T08:50:39.859Z,2.00
2024-02-19T08:53:07.443Z,1.27
2024-02-19T08:55:35.242Z,4.70
2024-02-19T08:58:02.825Z,1.77
2024-02-19T09:00:32.887Z,1.38
2024-02-19T09:03:01.315Z,1.80
2024-02-19T09:05:28.664Z,1.42
2024-02-19T09:07:55.977Z,1.15
2024-02-19T09:10:23.358Z,2.20
2024-02-19T09:12:50.661Z,4.10
2024-02-19T09:15:20.771Z,2.95
2024-02-19T09:17:48.267Z,2.58
2024-02-19T09:20:17.356Z,3.40
2024-02-19T09:22:46.000Z,3.70
2024-02-19T09:25:15.074Z,2.05
2024-02-19T09:27:42.583Z,2.42
2024-02-19T09:30:12.420Z,4.47
2024-02-19T09:32:39.952Z,0.88
2024-02-19T09:35:07.708Z,1.83
2024-02-19T09:37:35.128Z,1.88
2024-02-19T09:40:06.286Z,1.15
2024-02-19T09:42:34.484Z,1.60
2024-02-19T09:45:02.242Z,0.75
2024-02-19T09:47:31.642Z,2.25
2024-02-19T09:50:00.221Z,0.68
2024-02-19T09:52:30.304Z,1.30
2024-02-19T09:54:58.898Z,2.17
2024-02-19T09:57:29.582Z,3.30
2024-02-19T09:59:59.868Z,1.00
2024-02-19T10:02:28.869Z,1.23
2024-02-19T10:04:56.496Z,0.70
2024-02-19T10:07:24.454Z,3.78
2024-02-19T10:09:51.928Z,1.55
2024-02-19T10:12:20.011Z,0.70
2024-02-19T10:14:47.416Z,0.73
2024-02-19T10:17:23.580Z,1.05
2024-02-19T10:20:02.189Z,3.15
2024-02-19T10:22:29.635Z,2.42
2024-02-19T10:24:57.009Z,1.55
2024-02-19T10:27:24.695Z,3.00
2024-02-19T10:29:51.961Z,2.20
2024-02-19T10:32:19.253Z,3.53
2024-02-19T10:34:46.658Z,0.68
2024-02-19T10:37:13.810Z,0.82
2024-02-19T10:39:41.288Z,2.95
2024-02-19T10:42:09.646Z,1.58
2024-02-19T10:44:37.314Z,1.00
2024-02-19T10:47:06.296Z,3.10
2024-02-19T10:49:33.892Z,1.00
2024-02-19T10:52:04.219Z,0.93
2024-02-19T10:54:33.294Z,1.70
2024-02-19T10:57:08.983Z,3.60
2024-02-19T10:59:39.728Z,5.72
2024-02-19T11:02:10.548Z,1.50
2024-02-19T11:04:37.946Z,2.90
2024-02-19T11:07:05.743Z,0.93
2024-02-19T11:09:35.235Z,7.18
2024-02-19T11:12:04.605Z,2.85
2024-02-19T11:14:39.057Z,1.23
2024-02-19T11:17:06.566Z,1.73
2024-02-19T11:19:41.328Z,2.38
2024-02-19T11:22:13.355Z,0.73
2024-02-19T11:24:42.106Z,1.75
2024-02-19T11:27:09.961Z,3.78
2024-02-19T11:29:44.302Z,5.18
2024-02-19T11:32:21.655Z,1.48
2024-02-19T11:34:52.359Z,2.10
2024-02-19T11:37:20.819Z,2.22
2024-02-19T11:39:48.422Z,2.85
2024-02-19T11:42:19.610Z,3.70
2024-02-19T11:44:48.491Z,3.78
2024-02-19T11:47:16.999Z,4.05
2024-02-19T11:49:47.662Z,2.35
2024-02-19T11:52:15.733Z,4.55
2024-02-19T11:54:43.540Z,1.20
2024-02-19T11:57:11.683Z,1.27
2024-02-19T11:59:39.306Z,2.83
2024-02-19T12:02:07.815Z,2.15
2024-02-19T12:04:36.790Z,1.45
2024-02-19T12:07:04.883Z,2.15
2024-02-19T12:09:32.497Z,3.22
2024-02-19T12:11:59.900Z,4.75
2024-02-19T12:14:27.432Z,1.45
2024-02-19T12:16:58.699Z,1.45
2024-02-19T12:19:26.678Z,4.15
2024-02-19T12:21:54.945Z,4.28
2024-02-19T12:24:22.522Z,2.95
2024-02-19T12:26:49.785Z,2.33
2024-02-19T12:29:16.932Z,4.25
2024-02-19T12:31:44.305Z,2.10
2024-02-19T12:34:11.901Z,3.08
2024-02-19T12:36:39.361Z,2.15
2024-02-19T12:39:12.115Z,4.97
2024-02-19T12:41:39.843Z,2.42
2024-02-19T12:44:07.970Z,3.22
2024-02-19T12:46:36.085Z,2.42
2024-02-19T12:49:04.247Z,2.03
2024-02-19T12:51:37.179Z,2.67
2024-02-19T12:54:07.897Z,2.08
2024-02-19T12:56:36.791Z,2.30
2024-02-19T12:59:04.524Z,2.47
2024-02-19T13:01:34.008Z,2.20
2024-02-19T13:04:03.074Z,3.00
2024-02-19T13:06:31.668Z,2.10
2024-02-19T13:09:00.196Z,3.65
2024-02-19T13:11:29.195Z,3.30
2024-02-19T13:13:58.521Z,2.47
2024-02-19T13:16:26.300Z,3.00
2024-02-19T13:18:54.023Z,2.38
2024-02-19T13:21:21.750Z,2.63
2024-02-19T13:23:49.399Z,2.53
2024-02-19T13:26:16.986Z,2.45
2024-02-19T13:28:45.191Z,2.47
2024-02-19T13:31:13.069Z,2.85
2024-02-19T13:33:41.753Z,3.40
2024-02-19T13:36:10.303Z,4.13
2024-02-19T13:38:37.910Z,2.70
2024-02-19T13:41:05.882Z,3.90
2024-02-19T13:43:34.196Z,1.88
2024-02-19T13:46:05.549Z,1.30
2024-02-19T13:48:34.553Z,5.65
2024-02-19T13:51:03.316Z,2.17
2024-02-19T13:53:34.535Z,5.35
2024-02-19T13:56:02.085Z,2.33
2024-02-19T13:58:30.374Z,2.72
2024-02-19T14:01:06.030Z,3.83
2024-02-19T14:03:33.614Z,4.70
2024-02-19T14:06:01.003Z,4.70
2024-02-19T14:08:28.723Z,1.48
2024-02-19T14:10:58.594Z,1.48
2024-02-19T14:13:26.290Z,3.13
2024-02-19T14:15:53.923Z,3.88
2024-02-19T14:18:21.281Z,2.03
2024-02-19T14:20:48.593Z,3.78
2024-02-19T14:23:15.922Z,2.08
2024-02-19T14:25:45.036Z,2.00
2024-02-19T14:28:12.660Z,3.17
2024-02-19T14:30:40.141Z,2.75
2024-02-19T14:33:07.602Z,2.33
2024-02-19T14:35:35.341Z,3.15
2024-02-19T14:38:07.868Z,4.38
2024-02-19T14:40:37.955Z,4.88
2024-02-19T14:43:05.724Z,1.88
2024-02-19T14:45:33.741Z,4.30
2024-02-19T14:48:01.976Z,3.25
2024-02-19T14:50:29.480Z,1.88
2024-02-19T14:52:57.163Z,1.60
2024-02-19T14:55:24.540Z,3.10
2024-02-19T14:57:52.155Z,2.30
2024-02-19T15:00:22.927Z,3.50
2024-02-19T15:02:52.123Z,2.05
2024-02-19T15:05:20.562Z,1.85
2024-02-19T15:07:55.792Z,2.95
2024-02-19T15:10:29.261Z,4.95
2024-02-19T15:12:58.115Z,3.30
2024-02-19T15:15:25.910Z,3.22
2024-02-19T15:17:56.405Z,3.60
2024-02-19T15:20:24.105Z,5.07
2024-02-19T15:22:51.862Z,2.17
2024-02-19T15:25:20.775Z,1.77
2024-02-19T15:27:49.117Z,4.07
2024-02-19T15:30:16.621Z,3.08
2024-02-19T15:32:44.320Z,2.60
2024-02-19T15:35:12.088Z,2.22
2024-02-19T15:37:39.832Z,2.42
2024-02-19T15:40:09.747Z,3.60
2024-02-19T15:42:38.704Z,2.97
2024-02-19T15:45:06.973Z,1.98
2024-02-19T15:47:34.822Z,5.05
2024-02-19T15:50:04.435Z,2.88
2024-02-19T15:52:32.142Z,1.30
2024-02-19T15:54:59.803Z,1.55
2024-02-19T15:57:29.344Z,2.00
2024-02-19T15:59:57.400Z,4.10
2024-02-19T16:02:24.760Z,5.50
2024-02-19T16:04:52.153Z,4.97
2024-02-19T16:07:23.549Z,8.20
2024-02-19T16:09:52.584Z,3.95
2024-02-19T16:12:19.939Z,3.75
2024-02-19T16:14:47.343Z,9.65
2024-02-19T16:17:18.036Z,3.30
2024-02-19T16:19:45.349Z,2.97
2024-02-19T16:22:12.886Z,7.10
2024-02-19T16:24:40.517Z,5.03
2024-02-19T16:27:07.902Z,5.45
2024-02-19T16:29:35.228Z,3.25
2024-02-19T16:32:04.857Z,5.13
2024-02-19T16:34:32.232Z,7.13
2024-02-19T16:36:59.934Z,6.10
2024-02-19T16:39:30.099Z,4.07
2024-02-19T16:41:57.443Z,8.50
2024-02-19T16:44:26.634Z,10.32
2024-02-19T16:46:54.003Z,6.38
2024-02-19T16:49:21.266Z,8.00
2024-02-19T16:51:51.700Z,3.83
2024-02-19T16:54:21.556Z,4.65
2024-02-19T16:56:49.246Z,3.95
2024-02-19T16:59:16.787Z,9.32
2024-02-19T17:01:46.905Z,7.13
2024-02-19T17:04:14.528Z,5.68
2024-02-19T17:06:49.182Z,2.88
2024-02-19T17:09:16.518Z,4.28
2024-02-19T17:11:44.541Z,3.05
2024-02-19T17:14:12.001Z,4.60
2024-02-19T17:16:39.552Z,4.68
2024-02-19T17:19:07.135Z,8.48
2024-02-19T17:21:34.857Z,9.13
2024-02-19T17:24:02.401Z,2.63
2024-02-19T17:26:31.423Z,3.65
2024-02-19T17:28:58.801Z,7.65
2024-02-19T17:31:28.619Z,8.02
2024-02-19T17:33:56.148Z,4.63
2024-02-19T17:36:23.771Z,5.68
2024-02-19T17:38:51.074Z,6.07
2024-02-19T17:41:18.478Z,7.53
2024-02-19T17:43:48.432Z,2.60
2024-02-19T17:46:17.131Z,8.57
2024-02-19T17:48:47.874Z,5.60
2024-02-19T17:51:20.617Z,3.20
2024-02-19T17:53:52.575Z,3.22
2024-02-19T17:56:20.210Z,2.40
2024-02-19T17:58:47.803Z,7.97
2024-02-19T18:01:18.157Z,5.65
2024-02-19T18:03:45.577Z,3.10
2024-02-19T18:06:15.603Z,3.40
2024-02-19T18:08:42.970Z,5.68
2024-02-19T18:11:13.948Z,6.22
2024-02-19T18:13:41.754Z,5.03
2024-02-19T18:16:09.498Z,6.07
2024-02-19T18:18:37.477Z,3.38
2024-02-19T18:21:09.756Z,3.28
2024-02-19T18:23:37.042Z,8.98
2024-02-19T18:26:06.888Z,6.75
2024-02-19T18:28:36.355Z,6.30
2024-02-19T18:31:11.955Z,6.55
2024-02-19T18:33:39.888Z,6.88
2024-02-19T18:36:08.120Z,10.27
2024-02-19T18:38:38.696Z,6.28
2024-02-19T18:41:08.191Z,11.05
2024-02-19T18:43:35.687Z,8.95
2024-02-19T18:46:03.485Z,6.72
2024-02-19T18:48:32.050Z,8.20
2024-02-19T18:50:59.927Z,8.80
2024-02-19T18:53:28.110Z,5.85
2024-02-19T18:56:03.806Z,7.70
2024-02-19T18:58:31.629Z,6.22
2024-02-19T19:01:01.565Z,3.15
2024-02-19T19:03:29.431Z,6.78
2024-02-19T19:06:04.499Z,4.35
2024-02-19T19:08:32.608Z,6.25
2024-02-19T19:11:00.246Z,5.75
2024-02-19T19:13:27.734Z,5.93
2024-02-19T19:15:57.499Z,5.80
2024-02-19T19:18:25.217Z,4.82
2024-02-19T19:20:53.580Z,9.32
2024-02-19T19:23:21.113Z,7.88
2024-02-19T19:25:48.430Z,5.45
2024-02-19T19:28:16.835Z,6.28
2024-02-19T19:30:46.527Z,5.82
2024-02-19T19:33:19.057Z,6.35
2024-02-19T19:35:49.462Z,8.85
2024-02-19T19:38:17.477Z,8.98
2024-02-19T19:40:45.107Z,16.13
2024-02-19T19:43:12.558Z,12.88
2024-02-19T19:45:40.328Z,10.93
2024-02-19T19:48:08.801Z,15.65
2024-02-19T19:50:37.116Z,12.70
2024-02-19T19:53:04.737Z,17.27
2024-02-19T19:55:32.275Z,15.32
2024-02-19T19:58:00.118Z,11.13
2024-02-19T20:00:30.420Z,14.43
2024-02-19T20:02:58.701Z,18.33
2024-02-19T20:05:26.134Z,20.17
2024-02-19T20:07:53.633Z,15.60
2024-02-19T20:10:20.960Z,12.85
2024-02-19T20:12:48.955Z,15.55
2024-02-19T20:15:16.487Z,14.95
2024-02-19T20:17:43.917Z,11.40
2024-02-19T20:20:11.680Z,15.85
2024-02-19T20:22:39.447Z,12.13
2024-02-19T20:25:07.338Z,14.43
2024-02-19T20:27:34.551Z,20.08
2024-02-19T20:30:01.838Z,15.27
2024-02-19T20:32:29.168Z,23.55
2024-02-19T20:34:56.693Z,16.42
2024-02-19T20:37:24.202Z,26.13
2024-02-19T20:39:52.739Z,25.92
2024-02-19T20:42:20.162Z,19.48
2024-02-19T20:44:47.651Z,21.33
2024-02-19T20:47:14.888Z,11.02
2024-02-19T20:49:45.863Z,21.73
2024-02-19T20:52:16.384Z,23.08
2024-02-19T20:54:44.143Z,19.63
2024-02-19T20:57:12.192Z,13.95
2024-02-19T20:59:39.787Z,26.83
2024-02-19T21:02:08.314Z,17.85
2024-02-19T21:04:36.474Z,15.00
2024-02-19T21:07:07.419Z,11.57
2024-02-19T21:09:36.568Z,16.50
2024-02-19T21:12:04.268Z,11.07
2024-02-19T21:14:31.628Z,10.70
2024-02-19T21:16:59.939Z,10.13
2024-02-19T21:19:27.514Z,9.57
2024-02-19T21:21:55.112Z,20.23
2024-02-19T21:24:25.424Z,10.40
2024-02-19T21:26:53.443Z,15.98
2024-02-19T21:29:21.631Z,11.65
2024-02-19T21:31:50.440Z,15.63
2024-02-19T21:34:18.196Z,13.55
2024-02-19T21:36:45.571Z,9.98
2024-02-19T21:39:12.833Z,9.35
2024-02-19T21:41:40.401Z,19.98
2024-02-19T21:44:07.927Z,14.13
2024-02-19T21:46:37.218Z,14.80
2024-02-19T21:49:05.071Z,14.75
2024-02-19T21:51:32.561Z,18.05
2024-02-19T21:53:59.808Z,19.05
2024-02-19T21:56:27.659Z,15.90
2024-02-19T21:58:55.423Z,17.05
2024-02-19T22:01:23.375Z,16.65
2024-02-19T22:03:52.308Z,16.02
2024-02-19T22:06:20.277Z,7.50
2024-02-19T22:08:47.928Z,9.68
2024-02-19T22:11:20.948Z,11.45
2024-02-19T22:13:50.933Z,11.40
2024-02-19T22:16:18.308Z,11.48
2024-02-19T22:18:45.787Z,9.38
2024-02-19T22:21:13.320Z,9.63
2024-02-19T22:23:41.646Z,9.60
2024-02-19T22:26:09.607Z,12.32
2024-02-19T22:28:36.991Z,12.45
2024-02-19T22:31:07.163Z,9.65
2024-02-19T22:33:34.785Z,12.60
2024-02-19T22:36:02.068Z,11.10
2024-02-19T22:38:29.325Z,9.85
2024-02-19T22:40:57.351Z,9.07
2024-02-19T22:43:24.591Z,10.05
2024-02-19T22:45:54.832Z,10.48
2024-02-19T22:48:22.255Z,9.48
2024-02-19T22:50:49.613Z,9.88
2024-02-19T22:53:18.499Z,7.20
2024-02-19T22:55:45.970Z,7.63
2024-02-19T22:58:29.270Z,12.48
2024-02-19T23:01:00.504Z,12.07
2024-02-19T23:03:28.006Z,7.95
2024-02-19T23:05:55.835Z,7.40
2024-02-19T23:08:23.572Z,12.27
2024-02-19T23:10:52.333Z,13.20
2024-02-19T23:13:20.855Z,9.85
2024-02-19T23:15:48.508Z,12.77
2024-02-19T23:18:16.284Z,11.88
2024-02-19T23:20:43.512Z,12.13
2024-02-19T23:23:10.701Z,12.05
2024-02-19T23:25:37.986Z,11.45
2024-02-19T23:28:06.282Z,15.18
2024-02-19T23:30:34.052Z,15.70
2024-02-19T23:33:01.441Z,17.42
2024-02-19T23:35:28.877Z,18.75
2024-02-19T23:37:56.452Z,13.90
2024-02-19T23:40:23.780Z,17.80
2024-02-19T23:42:51.620Z,21.98
2024-02-19T23:45:19.887Z,24.92
2024-02-19T23:47:47.087Z,18.08
2024-02-19T23:50:14.684Z,19.35
2024-02-19T23:52:42.254Z,23.60
2024-02-19T23:55:10.765Z,22.05
2024-02-19T23:57:38.883Z,24.10
